createdAt,value
2019-03-12T00:00:51.223Z,100212.51
2019-03-12T00:03:18.166Z,100221.23
2019-03-12T00:05:44.862Z,100221.48
2019-03-12T00:08:14.551Z,100222.14
2019-03-12T00:10:41.192Z,100220.55
2019-03-12T00:13:08.353Z,100232.16
2019-03-12T00:15:35.223Z,100224.58
2019-03-12T00:18:01.779Z,100218.78
2019-03-12T00:20:28.385Z,100216.45
2019-03-12T00:22:55.075Z,100217.02
2019-03-12T00:25:21.644Z,100219.20
2019-03-12T00:27:48.466Z,100223.42
2019-03-12T00:30:15.502Z,100232.42
2019-03-12T00:32:42.180Z,100234.16
2019-03-12T00:35:09.357Z,100237.64
2019-03-12T00:37:36.249Z,100240.34
2019-03-12T00:40:06.141Z,100237.34
2019-03-12T00:42:32.767Z,100240.94
2019-03-12T00:44:59.324Z,100243.76
2019-03-12T00:47:25.896Z,100249.61
2019-03-12T00:49:53.657Z,100248.27
2019-03-12T00:52:20.259Z,100253.42
2019-03-12T00:54:48.075Z,100257.54
2019-03-12T00:57:14.748Z,100263.32
2019-03-12T00:59:41.481Z,100262.38
2019-03-12T01:02:08.024Z,100262.56
2019-03-12T01:04:34.579Z,100265.44
2019-03-12T01:07:01.176Z,100258.59
2019-03-12T01:09:27.787Z,100270.87
2019-03-12T01:11:54.464Z,100276.03
2019-03-12T01:14:21.328Z,100279.37
2019-03-12T01:16:47.863Z,100284.60
2019-03-12T01:19:14.730Z,100283.70
2019-03-12T01:21:41.521Z,100286.58
2019-03-12T01:24:08.150Z,100289.05
2019-03-12T01:26:34.740Z,100286.50
2019-03-12T01:29:01.401Z,100291.23
2019-03-12T01:31:31.389Z,100301.21
2019-03-12T01:33:58.173Z,100300.87
2019-03-12T01:36:24.772Z,100306.84
2019-03-12T01:38:51.436Z,100311.23
2019-03-12T01:41:18.053Z,100315.03
2019-03-12T01:43:45.101Z,100309.94
2019-03-12T01:46:11.806Z,100320.08
2019-03-12T01:48:38.440Z,100319.38
2019-03-12T01:51:05.086Z,100324.53
2019-03-12T01:53:31.646Z,100321.91
2019-03-12T01:55:58.242Z,100340.33
2019-03-12T01:58:24.819Z,100339.99
2019-03-12T02:00:51.484Z,100341.08
2019-03-12T02:03:18.226Z,100344.95
2019-03-12T02:05:44.908Z,100340.78
2019-03-12T02:08:11.743Z,100344.81
2019-03-12T02:10:38.373Z,100347.67
2019-03-12T02:13:05.125Z,100344.01
2019-03-12T02:15:31.847Z,100352.36
2019-03-12T02:17:58.510Z,100356.27
2019-03-12T02:20:25.116Z,100363.95
2019-03-12T02:22:51.679Z,100369.41
2019-03-12T02:25:18.534Z,100374.75
2019-03-12T02:27:45.241Z,100383.81
2019-03-12T02:30:17.760Z,100391.06
2019-03-12T02:32:45.072Z,100393.87
2019-03-12T02:35:12.089Z,100395.92
2019-03-12T02:37:39.037Z,100396.87
2019-03-12T02:40:09.336Z,100398.48
2019-03-12T02:42:35.993Z,100404.30
2019-03-12T02:45:07.618Z,100415.35
2019-03-12T02:47:34.371Z,100412.39
2019-03-12T02:50:01.303Z,100408.14
2019-03-12T02:52:28.044Z,100414.66
2019-03-12T02:54:54.621Z,100433.41
2019-03-12T02:57:21.201Z,100426.53
2019-03-12T02:59:47.851Z,100433.05
2019-03-12T03:02:14.490Z,100430.42
2019-03-12T03:04:41.176Z,100433.11
2019-03-12T03:07:09.657Z,100452.17
2019-03-12T03:09:36.323Z,100452.16
2019-03-12T03:12:03.085Z,100451.88
2019-03-12T03:14:34.598Z,100446.99
2019-03-12T03:17:01.244Z,100465.67
2019-03-12T03:19:29.126Z,100462.46
2019-03-12T03:21:55.749Z,100475.34
2019-03-12T03:24:22.482Z,100481.85
2019-03-12T03:26:49.215Z,100485.66
2019-03-12T03:29:17.543Z,100479.09
2019-03-12T03:31:44.204Z,100486.11
2019-03-12T03:34:11.061Z,100493.39
2019-03-12T03:36:37.622Z,100487.79
2019-03-12T03:39:05.179Z,100491.23
2019-03-12T03:41:34.758Z,100492.05
2019-03-12T03:44:00.956Z,100494.61
2019-03-12T03:46:27.913Z,100502.38
2019-03-12T03:48:54.640Z,100502.16
2019-03-12T03:51:21.282Z,100515.15
2019-03-12T03:53:47.933Z,100506.38
2019-03-12T03:56:14.822Z,100512.34
2019-03-12T03:58:41.380Z,100510.79
2019-03-12T04:01:08.166Z,100512.46
2019-03-12T04:03:35.008Z,100528.48
2019-03-12T04:06:01.903Z,100526.44
2019-03-12T04:08:28.504Z,100526.44
2019-03-12T04:10:55.095Z,100539.50
2019-03-12T04:13:21.806Z,100542.49
2019-03-12T04:15:48.381Z,100542.61
2019-03-12T04:18:15.295Z,100545.64
2019-03-12T04:20:41.847Z,100541.64
2019-03-12T04:23:08.528Z,100549.80
2019-03-12T04:25:35.090Z,100550.02
2019-03-12T04:28:01.905Z,100557.59
2019-03-12T04:30:28.609Z,100561.19
2019-03-12T04:32:55.350Z,100554.20
2019-03-12T04:35:27.428Z,100553.41
2019-03-12T04:37:54.216Z,100554.14
2019-03-12T04:40:21.107Z,100559.34
2019-03-12T04:42:48.029Z,100567.27
2019-03-12T04:45:15.958Z,100564.19
2019-03-12T04:47:42.872Z,100571.98
2019-03-12T04:50:10.025Z,100572.45
2019-03-12T04:52:36.587Z,100573.09
2019-03-12T04:55:09.714Z,100572.73
2019-03-12T04:57:36.273Z,100585.31
2019-03-12T05:00:08.619Z,100587.97
2019-03-12T05:02:35.158Z,100587.94
2019-03-12T05:05:03.472Z,100596.61
2019-03-12T05:07:30.181Z,100602.64
2019-03-12T05:09:56.950Z,100607.24
2019-03-12T05:12:26.451Z,100615.99
2019-03-12T05:14:53.031Z,100618.06
2019-03-12T05:17:19.951Z,100619.52
2019-03-12T05:19:46.788Z,100626.87
2019-03-12T05:22:14.963Z,100625.95
2019-03-12T05:24:41.593Z,100624.73
2019-03-12T05:27:08.258Z,100622.53
2019-03-12T05:29:34.942Z,100638.92
2019-03-12T05:32:01.685Z,100639.81
2019-03-12T05:34:28.257Z,100647.25
2019-03-12T05:36:54.920Z,100649.83
2019-03-12T05:39:21.476Z,100653.84
2019-03-12T05:41:48.366Z,100659.41
2019-03-12T05:44:15.138Z,100658.90
2019-03-12T05:46:43.215Z,100655.81
2019-03-12T05:49:09.791Z,100663.61
2019-03-12T05:51:37.713Z,100660.25
2019-03-12T05:54:04.281Z,100670.66
2019-03-12T05:56:30.888Z,100671.41
2019-03-12T05:58:57.727Z,100671.02
2019-03-12T06:01:24.360Z,100687.55
2019-03-12T06:03:51.169Z,100689.69
2019-03-12T06:06:17.887Z,100696.18
2019-03-12T06:08:44.434Z,100693.84
2019-03-12T06:11:11.147Z,100703.36
2019-03-12T06:13:37.925Z,100705.58
2019-03-12T06:16:04.825Z,100710.73
2019-03-12T06:18:31.592Z,100706.75
2019-03-12T06:20:58.377Z,100709.88
2019-03-12T06:23:24.938Z,100717.59
2019-03-12T06:25:51.534Z,100721.89
2019-03-12T06:28:18.215Z,100723.23
2019-03-12T06:30:46.854Z,100724.08
2019-03-12T06:33:15.611Z,100734.12
2019-03-12T06:35:44.109Z,100742.80
2019-03-12T06:38:12.605Z,100742.78
2019-03-12T06:40:41.230Z,100745.80
2019-03-12T06:43:09.779Z,100749.16
2019-03-12T06:45:38.251Z,100751.87
2019-03-12T06:48:06.979Z,100756.56
2019-03-12T06:50:35.601Z,100750.98
2019-03-12T06:53:04.261Z,100767.17
2019-03-12T06:55:32.965Z,100770.08
2019-03-12T06:58:06.344Z,100766.22
2019-03-12T07:00:34.970Z,100762.14
2019-03-12T07:03:03.556Z,100771.98
2019-03-12T07:05:32.140Z,100770.31
2019-03-12T07:08:00.767Z,100777.20
2019-03-12T07:10:29.306Z,100776.50
2019-03-12T07:12:57.810Z,100780.23
2019-03-12T07:15:26.363Z,100781.86
2019-03-12T07:17:54.847Z,100791.53
2019-03-12T07:20:23.360Z,100795.80
2019-03-12T07:22:51.996Z,100793.56
2019-03-12T07:25:20.677Z,100794.80
2019-03-12T07:27:49.261Z,100797.59
2019-03-12T07:30:17.951Z,100800.82
2019-03-12T07:32:46.499Z,100807.63
2019-03-12T07:35:15.134Z,100803.81
2019-03-12T07:37:43.691Z,100798.59
2019-03-12T07:40:12.372Z,100802.01
2019-03-12T07:42:40.944Z,100817.02
2019-03-12T07:45:10.422Z,100817.23
2019-03-12T07:47:41.834Z,100810.06
2019-03-12T07:50:10.443Z,100811.20
2019-03-12T07:52:39.102Z,100805.38
2019-03-12T07:55:07.910Z,100800.59
2019-03-12T07:57:36.426Z,100811.19
2019-03-12T08:00:10.741Z,100808.52
2019-03-12T08:02:39.193Z,100809.37
2019-03-12T08:05:08.437Z,100808.88
2019-03-12T08:07:37.008Z,100804.45
2019-03-12T08:10:10.608Z,100802.28
2019-03-12T08:12:39.203Z,100800.34
2019-03-12T08:15:22.675Z,100805.30
2019-03-12T08:17:42.723Z,100806.64
2019-03-12T08:20:11.612Z,100801.05
2019-03-12T08:22:40.162Z,100809.16
2019-03-12T08:25:09.780Z,100808.57
2019-03-12T08:27:38.253Z,100809.04
2019-03-12T08:30:11.363Z,100807.21
2019-03-12T08:32:39.842Z,100806.90
2019-03-12T08:35:08.706Z,100809.70
2019-03-12T08:40:52.457Z,100796.84
2019-03-12T08:43:13.531Z,100811.59
2019-03-12T08:45:45.355Z,100818.48
2019-03-12T08:48:13.104Z,100816.77
2019-03-12T08:50:40.190Z,100810.52
2019-03-12T08:53:08.929Z,100808.94
2019-03-12T08:55:37.413Z,100816.16
2019-03-12T08:58:06.089Z,100804.42
2019-03-12T09:00:34.904Z,100831.44
2019-03-12T09:03:59.336Z,100819.30
2019-03-12T09:06:27.812Z,100825.44
2019-03-12T09:08:56.399Z,100830.55
2019-03-12T09:11:24.894Z,100827.52
2019-03-12T09:14:51.089Z,100831.78
2019-03-12T09:17:20.596Z,100825.38
2019-03-12T09:19:51.023Z,100830.17
2019-03-12T09:22:19.696Z,100828.88
2019-03-12T09:24:49.322Z,100834.05
2019-03-12T09:27:18.035Z,100834.77
2019-03-12T09:29:46.590Z,100839.70
2019-03-12T09:32:15.216Z,100832.40
2019-03-12T09:34:41.924Z,100834.26
2019-03-12T09:37:10.517Z,100838.90
2019-03-12T09:40:36.229Z,100839.73
2019-03-12T09:43:04.898Z,100841.22
2019-03-12T09:45:33.520Z,100849.66
2019-03-12T09:48:02.175Z,100848.81
2019-03-12T09:50:30.632Z,100851.44
2019-03-12T09:52:59.205Z,100854.56
2019-03-12T09:55:27.989Z,100846.44
2019-03-12T09:57:56.565Z,100859.25
2019-03-12T10:00:25.257Z,100866.77
2019-03-12T10:02:53.848Z,100866.86
2019-03-12T10:05:22.366Z,100867.26
2019-03-12T10:07:50.850Z,100855.33
2019-03-12T10:10:19.512Z,100853.62
2019-03-12T10:12:48.487Z,100850.03
2019-03-12T10:15:17.055Z,100851.73
2019-03-12T10:17:45.617Z,100852.53
2019-03-12T10:20:14.206Z,100846.99
2019-03-12T10:22:42.883Z,100856.52
2019-03-12T10:25:11.699Z,100858.08
2019-03-12T10:27:40.174Z,100853.83
2019-03-12T10:30:11.243Z,100860.73
2019-03-12T10:32:39.816Z,100866.44
2019-03-12T10:35:08.771Z,100865.30
2019-03-12T10:37:37.343Z,100868.16
2019-03-12T10:40:10.700Z,100872.39
2019-03-12T10:42:45.287Z,100870.06
2019-03-12T10:45:14.090Z,100874.69
2019-03-12T10:47:43.785Z,100882.98
2019-03-12T10:50:10.838Z,100874.61
2019-03-12T10:52:37.871Z,100862.55
2019-03-12T10:55:12.877Z,100873.11
2019-03-12T10:57:35.246Z,100869.86
2019-03-12T11:00:07.668Z,100862.43
2019-03-12T11:02:36.068Z,100861.75
2019-03-12T11:05:04.992Z,100863.98
2019-03-12T11:07:31.842Z,100863.81
2019-03-12T11:09:58.450Z,100860.05
2019-03-12T11:12:25.020Z,100864.77
2019-03-12T11:14:51.618Z,100860.34
2019-03-12T11:17:18.272Z,100859.94
2019-03-12T11:19:44.935Z,100863.00
2019-03-12T11:22:13.617Z,100874.48
2019-03-12T11:24:40.461Z,100853.61
2019-03-12T11:27:07.070Z,100858.52
2019-03-12T11:29:33.978Z,100844.13
2019-03-12T11:32:00.546Z,100846.10
2019-03-12T11:34:27.347Z,100848.92
2019-03-12T11:36:54.010Z,100847.17
2019-03-12T11:39:20.656Z,100852.54
2019-03-12T11:41:47.683Z,100850.86
2019-03-12T11:44:14.367Z,100854.80
2019-03-12T11:46:45.335Z,100854.16
2019-03-12T11:49:10.733Z,100853.44
2019-03-12T11:51:37.322Z,100847.11
2019-03-12T11:54:04.055Z,100841.00
2019-03-12T11:56:30.879Z,100848.73
2019-03-12T11:58:57.547Z,100851.77
2019-03-12T12:01:24.268Z,100841.64
2019-03-12T12:03:50.933Z,100845.27
2019-03-12T12:06:17.698Z,100837.14
2019-03-12T12:08:44.503Z,100839.78
2019-03-12T12:11:11.524Z,100840.08
2019-03-12T12:13:38.237Z,100836.23
2019-03-12T12:16:05.227Z,100830.98
2019-03-12T12:18:31.866Z,100842.17
2019-03-12T12:20:58.498Z,100849.67
2019-03-12T12:23:25.163Z,100847.04
2019-03-12T12:25:51.967Z,100838.90
2019-03-12T12:28:18.610Z,100843.56
2019-03-12T12:30:45.366Z,100831.30
2019-03-12T12:33:12.188Z,100822.11
2019-03-12T12:35:38.827Z,100819.41
2019-03-12T12:38:05.506Z,100813.58
2019-03-12T12:40:32.286Z,100822.85
2019-03-12T12:42:59.074Z,100818.81
2019-03-12T12:45:29.532Z,100822.23
2019-03-12T12:47:56.404Z,100824.98
2019-03-12T12:50:23.291Z,100813.00
2019-03-12T12:52:49.846Z,100811.63
2019-03-12T12:55:16.703Z,100816.53
2019-03-12T12:57:43.433Z,100817.84
2019-03-12T13:00:15.323Z,100798.34
2019-03-12T13:02:42.184Z,100795.63
2019-03-12T13:05:09.053Z,100798.69
2019-03-12T13:07:36.735Z,100797.95
2019-03-12T13:10:09.066Z,100798.87
2019-03-12T13:12:35.705Z,100800.56
2019-03-12T13:15:06.756Z,100795.16
2019-03-12T13:17:33.325Z,100811.94
2019-03-12T13:19:59.886Z,100805.89
2019-03-12T13:22:26.689Z,100803.64
2019-03-12T13:24:53.274Z,100800.81
2019-03-12T13:27:20.048Z,100803.24
2019-03-12T13:30:42.860Z,100796.64
2019-03-12T13:33:09.775Z,100793.04
2019-03-12T13:35:36.354Z,100805.20
2019-03-12T13:38:03.219Z,100794.32
2019-03-12T13:40:30.072Z,100802.13
2019-03-12T13:42:57.926Z,100797.31
2019-03-12T13:45:27.852Z,100796.50
2019-03-12T13:47:54.824Z,100800.62
2019-03-12T13:50:21.586Z,100806.55
2019-03-12T13:52:48.596Z,100806.44
2019-03-12T13:55:16.156Z,100801.48
2019-03-12T13:57:43.296Z,100793.45
2019-03-12T14:00:15.552Z,100796.70
2019-03-12T14:02:43.156Z,100784.52
2019-03-12T14:05:10.369Z,100799.14
2019-03-12T14:07:37.274Z,100797.38
2019-03-12T14:10:09.563Z,100791.66
2019-03-12T14:12:36.244Z,100799.67
2019-03-12T14:15:09.772Z,100786.25
2019-03-12T14:17:36.653Z,100795.25
2019-03-12T14:20:08.911Z,100792.76
2019-03-12T14:22:35.501Z,100788.27
2019-03-12T14:25:05.789Z,100785.79
2019-03-12T14:27:32.430Z,100797.03
2019-03-12T14:29:59.210Z,100798.03
2019-03-12T14:32:25.992Z,100783.55
2019-03-12T14:34:55.880Z,100798.99
2019-03-12T14:37:22.477Z,100795.12
2019-03-12T14:39:49.160Z,100794.05
2019-03-12T14:42:16.126Z,100791.81
2019-03-12T14:44:43.911Z,100788.61
2019-03-12T14:47:10.677Z,100787.34
2019-03-12T14:49:37.396Z,100785.78
2019-03-12T14:52:08.252Z,100788.31
2019-03-12T14:54:34.930Z,100793.34
2019-03-12T14:57:01.628Z,100804.10
2019-03-12T14:59:28.526Z,100808.05
2019-03-12T15:01:55.177Z,100800.69
2019-03-12T15:04:23.220Z,100801.38
2019-03-12T15:06:50.143Z,100809.87
2019-03-12T15:09:17.048Z,100805.23
2019-03-12T15:13:00.347Z,100801.73
2019-03-12T15:15:26.942Z,100805.98
2019-03-12T15:17:53.539Z,100797.08
2019-03-12T15:20:20.121Z,100789.11
2019-03-12T15:22:46.794Z,100796.65
2019-03-12T15:25:13.745Z,100804.61
2019-03-12T15:27:40.651Z,100796.64
2019-03-12T15:30:12.973Z,100791.27
2019-03-12T15:32:39.752Z,100793.45
2019-03-12T15:35:06.820Z,100792.67
2019-03-12T15:37:35.467Z,100793.55
2019-03-12T15:40:06.970Z,100794.05
2019-03-12T15:42:33.625Z,100784.50
2019-03-12T15:45:00.368Z,100786.50
2019-03-12T15:47:26.975Z,100788.14
2019-03-12T15:49:53.549Z,100790.23
2019-03-12T15:52:20.174Z,100784.41
2019-03-12T15:54:46.742Z,100788.59
2019-03-12T15:57:13.388Z,100778.66
2019-03-12T15:59:40.061Z,100783.58
2019-03-12T16:02:06.742Z,100778.95
2019-03-12T16:04:33.433Z,100772.55
2019-03-12T16:07:01.727Z,100783.61
2019-03-12T16:09:28.671Z,100778.55
2019-03-12T16:11:55.337Z,100769.70
2019-03-12T16:14:22.075Z,100770.23
2019-03-12T16:16:50.705Z,100771.14
2019-03-12T16:19:17.733Z,100767.17
2019-03-12T16:21:44.541Z,100759.33
2019-03-12T16:24:16.316Z,100765.72
2019-03-12T16:26:43.024Z,100760.38
2019-03-12T16:29:09.675Z,100757.14
2019-03-12T16:31:36.267Z,100750.67
2019-03-12T16:34:03.044Z,100756.80
2019-03-12T16:36:29.680Z,100758.24
2019-03-12T16:38:58.213Z,100762.59
2019-03-12T16:41:24.893Z,100763.00
2019-03-12T16:43:51.604Z,100760.01
2019-03-12T16:46:18.312Z,100762.02
2019-03-12T16:48:49.074Z,100756.57
2019-03-12T16:51:15.981Z,100762.42
2019-03-12T16:53:42.905Z,100768.38
2019-03-12T16:56:09.640Z,100769.85
2019-03-12T16:58:36.399Z,100777.06
2019-03-12T17:01:03.401Z,100775.83
2019-03-12T17:03:30.115Z,100766.22
2019-03-12T17:05:58.172Z,100778.08
2019-03-12T17:08:28.717Z,100775.22
2019-03-12T17:11:02.469Z,100769.69
2019-03-12T17:13:26.032Z,100768.02
2019-03-12T17:15:55.533Z,100773.34
2019-03-12T17:18:22.296Z,100772.55
2019-03-12T17:20:49.496Z,100770.51
2019-03-12T17:23:21.140Z,100764.38
2019-03-12T17:25:48.091Z,100768.83
2019-03-12T17:28:15.049Z,100762.86
2019-03-12T17:30:41.863Z,100770.30
2019-03-12T17:33:11.456Z,100770.44
2019-03-12T17:35:41.274Z,100769.67
2019-03-12T17:38:08.197Z,100771.98
2019-03-12T17:40:35.371Z,100774.92
2019-03-12T17:43:03.497Z,100774.77
2019-03-12T17:45:30.325Z,100773.19
2019-03-12T17:47:57.059Z,100778.47
2019-03-12T17:50:25.532Z,100780.68
2019-03-12T17:52:52.438Z,100781.14
2019-03-12T17:55:19.387Z,100780.73
2019-03-12T17:57:46.278Z,100783.34
2019-03-12T18:00:19.612Z,100789.41
2019-03-12T18:02:46.414Z,100784.66
2019-03-12T18:05:15.441Z,100788.11
2019-03-12T18:07:43.017Z,100780.34
2019-03-12T18:10:12.874Z,100781.20
2019-03-12T18:12:39.979Z,100779.44
2019-03-12T18:15:12.673Z,100773.40
2019-03-12T18:17:40.379Z,100777.70
2019-03-12T18:20:11.857Z,100778.97
2019-03-12T18:22:41.296Z,100780.27
2019-03-12T18:26:04.266Z,100778.97
2019-03-12T18:28:31.094Z,100774.18
2019-03-12T18:31:02.881Z,100774.62
2019-03-12T18:33:29.495Z,100770.30
2019-03-12T18:35:56.198Z,100777.56
2019-03-12T18:38:23.097Z,100772.37
2019-03-12T18:40:51.914Z,100773.22
2019-03-12T18:43:18.607Z,100772.72
2019-03-12T18:45:48.410Z,100774.81
2019-03-12T18:48:17.450Z,100776.17
2019-03-12T18:50:45.666Z,100767.03
2019-03-12T18:53:14.201Z,100770.88
2019-03-12T18:55:49.739Z,100775.63
2019-03-12T18:58:22.912Z,100774.41
2019-03-12T19:00:52.375Z,100778.69
2019-03-12T19:03:25.134Z,100776.56
2019-03-12T19:05:53.245Z,100777.77
2019-03-12T19:08:23.425Z,100776.48
2019-03-12T19:10:50.503Z,100772.23
2019-03-12T19:13:20.881Z,100775.64
2019-03-12T19:15:50.808Z,100765.33
2019-03-12T19:18:20.308Z,100769.53
2019-03-12T19:20:50.349Z,100764.41
2019-03-12T19:23:19.856Z,100753.06
2019-03-12T19:25:47.837Z,100754.25
2019-03-12T19:28:14.761Z,100744.02
2019-03-12T19:30:43.990Z,100742.30
2019-03-12T19:33:14.619Z,100748.30
2019-03-12T19:35:42.167Z,100740.09
2019-03-12T19:38:11.082Z,100739.66
2019-03-12T19:40:40.838Z,100741.38
2019-03-12T19:43:07.984Z,100741.58
2019-03-12T19:45:35.304Z,100733.38
2019-03-12T19:48:05.955Z,100729.36
2019-03-12T19:50:34.444Z,100732.33
2019-03-12T19:53:01.508Z,100726.33
2019-03-12T19:55:31.820Z,100722.88
2019-03-12T19:57:59.996Z,100727.72
2019-03-12T20:00:28.694Z,100718.73
2019-03-12T20:03:10.323Z,100728.70
2019-03-12T20:05:29.565Z,100725.88
2019-03-12T20:07:58.508Z,100725.52
2019-03-12T20:10:32.906Z,100710.30
2019-03-12T20:13:05.425Z,100717.64
2019-03-12T20:15:35.944Z,100711.64
2019-03-12T20:18:09.930Z,100698.19
2019-03-12T20:20:43.489Z,100690.38
2019-03-12T20:23:16.067Z,100697.72
2019-03-12T20:25:50.481Z,100692.95
2019-03-12T20:28:23.070Z,100687.94
2019-03-12T20:30:55.662Z,100683.91
2019-03-12T20:33:28.224Z,100673.39
2019-03-12T20:36:00.719Z,100697.75
2019-03-12T20:38:36.388Z,100685.00
2019-03-12T20:41:11.786Z,100678.38
2019-03-12T20:43:44.293Z,100679.19
2019-03-12T20:46:17.045Z,100676.33
2019-03-12T20:48:49.621Z,100670.15
2019-03-12T20:51:22.225Z,100676.16
2019-03-12T20:53:56.674Z,100664.60
2019-03-12T20:56:30.997Z,100659.84
2019-03-12T20:59:03.573Z,100651.91
2019-03-12T21:01:34.091Z,100650.63
2019-03-12T21:04:09.469Z,100649.59
2019-03-12T21:06:41.946Z,100648.30
2019-03-12T21:09:21.844Z,100652.20
2019-03-12T21:11:54.308Z,100653.41
2019-03-12T21:14:24.787Z,100638.17
2019-03-12T21:16:57.215Z,100648.61
2019-03-12T21:19:30.270Z,100639.52
2019-03-12T21:22:04.109Z,100639.98
2019-03-12T21:24:36.797Z,100637.88
2019-03-12T21:27:10.562Z,100629.92
2019-03-12T21:29:41.329Z,100630.04
2019-03-12T21:32:09.805Z,100625.75
2019-03-12T21:34:40.393Z,100624.30
2019-03-12T21:37:07.388Z,100630.93
2019-03-12T21:39:34.402Z,100618.38
2019-03-12T21:42:01.427Z,100616.70
2019-03-12T21:44:28.408Z,100618.48
2019-03-12T21:46:55.353Z,100618.84
2019-03-12T21:49:22.280Z,100623.20
2019-03-12T21:51:49.023Z,100624.04
2019-03-12T21:54:16.024Z,100623.95
2019-03-12T21:56:42.799Z,100615.78
2019-03-12T21:59:09.700Z,100615.40
2019-03-12T22:01:36.407Z,100610.25
2019-03-12T22:04:03.303Z,100610.27
2019-03-12T22:06:29.928Z,100612.44
2019-03-12T22:08:56.525Z,100607.67
2019-03-12T22:11:23.093Z,100601.66
2019-03-12T22:13:49.687Z,100599.11
2019-03-12T22:16:17.593Z,100604.74
2019-03-12T22:18:44.313Z,100593.90
2019-03-12T22:21:11.675Z,100582.63
2019-03-12T22:23:40.210Z,100587.91
2019-03-12T22:26:06.800Z,100582.30
2019-03-12T22:28:33.424Z,100573.63
2019-03-12T22:31:00.226Z,100569.75
2019-03-12T22:33:27.003Z,100569.80
2019-03-12T22:35:54.743Z,100561.58
2019-03-12T22:38:21.343Z,100558.55
2019-03-12T22:40:48.165Z,100551.56
2019-03-12T22:43:15.280Z,100538.63
2019-03-12T22:45:41.850Z,100541.67
2019-03-12T22:48:08.676Z,100539.02
2019-03-12T22:50:35.953Z,100526.95
2019-03-12T22:53:02.850Z,100523.56
2019-03-12T22:55:29.453Z,100517.98
2019-03-12T22:57:56.160Z,100510.17
2019-03-12T23:00:27.484Z,100517.05
2019-03-12T23:02:56.176Z,100503.25
2019-03-12T23:05:24.754Z,100492.45
2019-03-12T23:07:54.236Z,100492.45
2019-03-12T23:10:21.716Z,100485.14
2019-03-12T23:12:49.284Z,100482.11
2019-03-12T23:15:18.463Z,100479.93
2019-03-12T23:17:45.544Z,100477.37
2019-03-12T23:20:17.804Z,100472.66
2019-03-12T23:22:44.659Z,100462.71
2019-03-12T23:25:11.854Z,100459.62
2019-03-12T23:27:40.476Z,100454.06
2019-03-12T23:30:12.614Z,100444.61
2019-03-12T23:32:39.359Z,100442.47
2019-03-12T23:35:07.700Z,100438.14
2019-03-12T23:37:34.429Z,100439.88
2019-03-12T23:40:01.552Z,100435.15
2019-03-12T23:42:28.516Z,100436.84
2019-03-12T23:44:55.193Z,100429.53
2019-03-12T23:47:22.060Z,100427.39
2019-03-12T23:49:48.755Z,100419.19
2019-03-12T23:52:15.839Z,100414.05
2019-03-12T23:54:42.637Z,100402.80
2019-03-12T23:57:09.730Z,100404.09
2019-03-12T23:59:37.543Z,100403.66
